createdAt,value
2023-01-13T00:01:18.321Z,0.13
2023-01-13T00:04:20.775Z,0.18
2023-01-13T00:07:28.985Z,0.31
2023-01-13T00:10:31.446Z,0.49
2023-01-13T00:13:35.474Z,0.72
2023-01-13T00:16:43.161Z,0.73
2023-01-13T00:19:46.601Z,0.65
2023-01-13T00:22:49.217Z,0.93
2023-01-13T00:25:51.727Z,0.84
2023-01-13T00:28:59.262Z,0.85
2023-01-13T00:32:01.892Z,0.89
2023-01-13T00:35:04.797Z,0.82
2023-01-13T00:38:07.264Z,0.80
2023-01-13T00:41:18.414Z,0.71
2023-01-13T00:44:21.215Z,0.89
2023-01-13T00:47:26.338Z,0.91
2023-01-13T00:50:30.230Z,0.85
2023-01-13T00:53:40.684Z,0.92
2023-01-13T00:56:43.221Z,0.84
2023-01-13T00:59:52.601Z,0.80
2023-01-13T01:02:55.266Z,0.97
2023-01-13T01:06:28.300Z,0.99
2023-01-13T01:09:33.577Z,1.11
2023-01-13T01:12:37.581Z,0.99
2023-01-13T01:15:45.258Z,1.03
2023-01-13T01:19:02.991Z,1.08
2023-01-13T01:22:05.628Z,0.98
2023-01-13T01:25:08.534Z,1.02
2023-01-13T01:28:11.228Z,0.94
2023-01-13T01:31:26.814Z,1.02
2023-01-13T01:34:31.383Z,1.00
2023-01-13T01:37:33.879Z,0.89
2023-01-13T01:40:36.433Z,0.95
2023-01-13T01:44:08.221Z,0.77
2023-01-13T01:47:15.287Z,0.95
2023-01-13T01:50:23.813Z,0.80
2023-01-13T01:53:28.416Z,0.95
2023-01-13T01:56:37.715Z,0.94
2023-01-13T01:59:40.633Z,1.07
2023-01-13T02:02:46.483Z,1.13
2023-01-13T02:05:49.188Z,1.16
2023-01-13T02:08:53.082Z,1.16
2023-01-13T02:12:22.266Z,1.09
2023-01-13T02:15:30.882Z,1.04
2023-01-13T02:18:48.321Z,1.23
2023-01-13T02:22:11.334Z,1.36
2023-01-13T02:25:31.702Z,1.47
2023-01-13T02:29:34.905Z,1.49
2023-01-13T02:32:43.930Z,1.59
2023-01-13T02:36:05.767Z,1.55
2023-01-13T02:39:36.359Z,1.49
2023-01-13T02:43:09.478Z,1.45
2023-01-13T02:46:20.402Z,1.47
2023-01-13T02:49:37.595Z,1.44
2023-01-13T02:52:52.367Z,1.50
2023-01-13T02:55:58.731Z,1.52
2023-01-13T02:59:01.922Z,1.62
2023-01-13T03:02:05.450Z,1.59
2023-01-13T03:05:08.419Z,1.64
2023-01-13T03:08:47.776Z,1.79
2023-01-13T03:12:02.915Z,1.89
2023-01-13T03:15:37.081Z,1.77
2023-01-13T03:19:06.281Z,1.75
2023-01-13T03:22:33.991Z,1.59
2023-01-13T03:26:03.991Z,1.72
2023-01-13T03:29:13.464Z,1.75
2023-01-13T03:32:30.135Z,1.67
2023-01-13T03:35:40.603Z,1.67
2023-01-13T03:38:51.625Z,1.79
2023-01-13T03:42:05.820Z,1.60
2023-01-13T03:45:18.375Z,1.64
2023-01-13T03:48:22.993Z,1.70
2023-01-13T03:51:36.943Z,1.57
2023-01-13T03:54:55.307Z,1.41
2023-01-13T03:58:14.414Z,1.49
2023-01-13T04:01:47.235Z,1.47
2023-01-13T04:04:58.349Z,1.47
2023-01-13T04:08:22.367Z,1.44
2023-01-13T04:11:39.872Z,1.43
2023-01-13T04:14:45.550Z,1.48
2023-01-13T04:17:51.364Z,1.38
2023-01-13T04:21:05.924Z,1.45
2023-01-13T04:24:14.624Z,1.41
2023-01-13T04:27:19.876Z,1.36
2023-01-13T04:30:22.491Z,1.21
2023-01-13T04:33:25.073Z,0.90
2023-01-13T04:36:27.817Z,1.02
2023-01-13T04:39:30.375Z,1.21
2023-01-13T04:42:32.944Z,1.25
2023-01-13T04:45:43.233Z,1.15
2023-01-13T04:48:48.600Z,1.11
2023-01-13T04:51:51.164Z,1.04
2023-01-13T04:54:53.752Z,1.06
2023-01-13T04:58:16.591Z,1.05
2023-01-13T05:01:19.359Z,0.95
2023-01-13T05:04:24.843Z,0.93
2023-01-13T05:07:30.025Z,1.02
2023-01-13T05:10:32.770Z,0.81
2023-01-13T05:13:53.825Z,0.89
2023-01-13T05:17:05.410Z,0.82
2023-01-13T05:20:11.086Z,0.80
2023-01-13T05:23:32.288Z,0.60
2023-01-13T05:26:34.811Z,0.78
2023-01-13T05:29:37.339Z,0.90
2023-01-13T05:32:39.909Z,1.08
2023-01-13T05:35:46.764Z,1.08
2023-01-13T05:38:52.235Z,1.01
2023-01-13T05:42:15.971Z,1.05
2023-01-13T05:45:21.545Z,0.77
2023-01-13T05:48:29.838Z,0.75
2023-01-13T05:51:35.302Z,0.64
2023-01-13T05:54:37.926Z,0.52
2023-01-13T05:57:41.650Z,0.35
2023-01-13T06:00:44.725Z,0.44
2023-01-13T06:03:49.635Z,0.22
2023-01-13T06:06:52.211Z,0.36
2023-01-13T06:09:54.800Z,0.46
2023-01-13T06:12:57.731Z,0.26
2023-01-13T06:16:09.166Z,0.13
2023-01-13T06:19:13.338Z,0.06
2023-01-13T06:22:18.224Z,-0.08
2023-01-13T06:25:50.744Z,0.04
2023-01-13T06:28:56.480Z,0.22
2023-01-13T06:32:00.192Z,0.08
2023-01-13T06:35:08.449Z,0.23
2023-01-13T06:38:13.022Z,0.18
2023-01-13T06:41:16.233Z,0.05
2023-01-13T06:44:20.034Z,0.18
2023-01-13T06:47:23.908Z,0.23
2023-01-13T06:50:28.462Z,0.19
2023-01-13T06:53:31.820Z,0.09
2023-01-13T06:56:34.851Z,0.12
2023-01-13T06:59:37.475Z,-0.65
2023-01-13T07:02:40.286Z,0.29
2023-01-13T07:05:44.384Z,-0.23
2023-01-13T07:08:50.315Z,0.25
2023-01-13T07:11:56.271Z,0.19
2023-01-13T07:15:17.474Z,0.28
2023-01-13T07:18:20.002Z,-0.33
2023-01-13T07:21:22.676Z,-0.29
2023-01-13T07:24:26.517Z,0.42
2023-01-13T07:27:37.701Z,-0.07
2023-01-13T07:30:40.300Z,0.35
2023-01-13T07:33:43.122Z,0.30
2023-01-13T07:36:46.011Z,0.12
2023-01-13T07:39:50.363Z,0.51
2023-01-13T07:43:14.699Z,0.68
2023-01-13T07:46:20.224Z,0.51
2023-01-13T07:49:22.771Z,0.64
2023-01-13T07:52:28.319Z,0.95
2023-01-13T07:55:30.953Z,0.85
2023-01-13T07:58:35.908Z,1.00
2023-01-13T08:01:38.868Z,1.37
2023-01-13T08:04:47.208Z,1.42
2023-01-13T08:08:02.711Z,1.53
2023-01-13T08:11:08.560Z,1.63
2023-01-13T08:14:11.093Z,1.75
2023-01-13T08:17:14.064Z,1.90
2023-01-13T08:20:19.806Z,2.06
2023-01-13T08:23:23.367Z,2.21
2023-01-13T08:26:26.120Z,2.28
2023-01-13T08:29:28.784Z,2.25
2023-01-13T08:32:34.875Z,2.50
2023-01-13T08:35:41.278Z,2.68
2023-01-13T09:07:47.664Z,3.20
2023-01-13T09:10:53.709Z,3.20
2023-01-13T09:13:57.666Z,3.20
2023-01-13T09:17:01.171Z,3.25
2023-01-13T09:20:08.277Z,3.36
2023-01-13T09:23:15.888Z,3.42
2023-01-13T09:26:23.213Z,3.89
2023-01-13T09:29:37.170Z,3.93
2023-01-13T09:32:42.648Z,4.16
2023-01-13T09:35:50.170Z,4.47
2023-01-13T09:38:58.046Z,4.66
2023-01-13T09:43:01.511Z,4.82
2023-01-13T09:46:48.030Z,5.02
2023-01-13T09:49:52.613Z,5.17
2023-01-13T09:52:56.224Z,5.31
2023-01-13T09:56:01.942Z,5.33
2023-01-13T09:59:05.694Z,5.52
2023-01-13T10:02:41.600Z,5.56
2023-01-13T10:05:52.854Z,5.61
2023-01-13T10:08:58.200Z,5.61
2023-01-13T10:12:21.348Z,5.63
2023-01-13T10:15:26.863Z,5.66
2023-01-13T10:18:38.662Z,5.65
2023-01-13T10:21:46.020Z,5.60
2023-01-13T10:25:10.274Z,5.75
2023-01-13T10:28:18.473Z,5.90
2023-01-13T10:31:28.168Z,5.95
2023-01-13T10:34:49.703Z,6.07
2023-01-13T10:37:58.662Z,6.08
2023-01-13T10:41:05.844Z,6.26
2023-01-13T10:44:18.357Z,6.18
2023-01-13T10:47:30.652Z,6.28
2023-01-13T10:50:37.819Z,6.18
2023-01-13T10:54:01.815Z,6.19
2023-01-13T10:57:24.180Z,6.07
2023-01-13T11:00:32.033Z,6.03
2023-01-13T11:03:42.735Z,6.25
2023-01-13T11:06:49.579Z,6.31
2023-01-13T11:10:09.384Z,6.40
2023-01-13T11:13:20.168Z,6.39
2023-01-13T11:16:26.456Z,6.20
2023-01-13T11:19:32.832Z,6.56
2023-01-13T11:22:46.939Z,6.43
2023-01-13T11:26:03.225Z,6.39
2023-01-13T11:29:22.080Z,6.51
2023-01-13T11:32:29.229Z,6.50
2023-01-13T11:35:39.035Z,6.47
2023-01-13T11:38:53.098Z,6.17
2023-01-13T11:42:23.328Z,6.29
2023-01-13T11:45:52.585Z,6.39
2023-01-13T11:48:59.407Z,6.14
2023-01-13T11:52:33.694Z,6.15
2023-01-13T11:55:51.371Z,5.96
2023-01-13T11:58:59.243Z,6.20
2023-01-13T12:02:06.913Z,6.02
2023-01-13T12:05:41.416Z,5.82
2023-01-13T12:08:54.256Z,5.65
2023-01-13T12:12:33.364Z,5.60
2023-01-13T12:15:59.702Z,5.63
2023-01-13T12:19:08.665Z,5.75
2023-01-13T12:22:21.951Z,5.72
2023-01-13T12:25:41.400Z,5.70
2023-01-13T12:28:54.560Z,5.97
2023-01-13T12:32:04.145Z,6.06
2023-01-13T12:35:23.601Z,6.18
2023-01-13T12:38:46.447Z,6.37
2023-01-13T12:42:28.071Z,6.47
2023-01-13T12:45:34.138Z,6.34
2023-01-13T12:48:52.389Z,6.49
2023-01-13T12:51:58.529Z,6.49
2023-01-13T12:55:05.125Z,6.50
2023-01-13T12:58:09.135Z,6.56
2023-01-13T13:01:17.558Z,6.57
2023-01-13T13:04:48.690Z,6.37
2023-01-13T13:08:17.301Z,6.57
2023-01-13T13:12:00.517Z,6.62
2023-01-13T13:15:07.569Z,6.42
2023-01-13T13:18:18.742Z,6.45
2023-01-13T13:21:24.513Z,6.25
2023-01-13T13:24:28.586Z,6.03
2023-01-13T13:27:33.458Z,6.13
2023-01-13T13:30:40.447Z,6.10
2023-01-13T13:33:55.965Z,6.16
2023-01-13T13:37:12.543Z,6.17
2023-01-13T13:40:36.485Z,6.04
2023-01-13T13:44:01.774Z,5.84
2023-01-13T13:47:07.570Z,5.86
2023-01-13T13:50:22.275Z,5.81
2023-01-13T13:53:31.173Z,5.82
2023-01-13T13:56:41.968Z,5.82
2023-01-13T13:59:51.357Z,5.77
2023-01-13T14:03:05.874Z,5.58
2023-01-13T14:06:22.823Z,5.73
2023-01-13T14:09:30.471Z,5.64
2023-01-13T14:12:39.015Z,5.70
2023-01-13T14:15:44.556Z,5.63
2023-01-13T14:18:52.173Z,5.66
2023-01-13T14:22:02.203Z,5.51
2023-01-13T14:25:31.465Z,5.54
2023-01-13T14:28:43.445Z,5.51
2023-01-13T14:31:56.466Z,5.38
2023-01-13T14:35:07.270Z,5.47
2023-01-13T14:38:20.284Z,5.50
2023-01-13T14:41:32.599Z,5.49
2023-01-13T14:44:48.696Z,5.28
2023-01-13T14:48:03.441Z,5.26
2023-01-13T14:51:12.541Z,5.18
2023-01-13T14:55:02.039Z,5.21
2023-01-13T14:58:30.345Z,5.11
2023-01-13T15:01:57.631Z,5.03
2023-01-13T15:05:31.671Z,5.03
2023-01-13T15:09:00.101Z,4.90
2023-01-13T15:12:56.553Z,4.87
2023-01-13T15:16:38.401Z,4.90
2023-01-13T15:20:10.237Z,4.87
2023-01-13T15:23:39.047Z,4.85
2023-01-13T15:27:27.831Z,4.82
2023-01-13T15:30:53.043Z,4.65
2023-01-13T15:34:30.386Z,4.39
2023-01-13T15:38:24.284Z,4.63
2023-01-13T15:42:15.875Z,4.54
2023-01-13T15:46:09.375Z,4.51
2023-01-13T15:49:49.597Z,4.56
2023-01-13T15:53:39.890Z,4.46
2023-01-13T15:57:25.949Z,4.37
2023-01-13T16:01:09.122Z,4.44
2023-01-13T16:04:42.000Z,4.35
2023-01-13T16:08:26.948Z,4.19
2023-01-13T16:12:11.453Z,4.08
2023-01-13T16:16:27.491Z,3.97
2023-01-13T16:20:19.842Z,4.13
2023-01-13T16:24:10.920Z,3.92
2023-01-13T16:28:40.550Z,4.05
2023-01-13T16:36:42.292Z,4.02
2023-01-13T16:40:48.175Z,4.07
2023-01-13T16:49:20.800Z,4.02
2023-01-13T16:57:25.253Z,3.95
2023-01-13T17:02:11.531Z,3.94
2023-01-13T17:06:23.531Z,3.83
2023-01-13T17:10:26.669Z,3.86
2023-01-13T17:14:31.746Z,3.97
2023-01-13T17:22:21.745Z,3.83
2023-01-13T17:34:26.189Z,3.76
2023-01-13T17:38:26.739Z,3.66
2023-01-13T17:43:08.509Z,3.64
2023-01-13T18:13:19.530Z,3.49
2023-01-13T18:22:03.107Z,3.41
2023-01-13T18:30:09.208Z,3.24
2023-01-13T18:38:49.149Z,3.19
2023-01-13T18:42:48.563Z,3.20
2023-01-13T18:58:34.050Z,3.30
2023-01-13T19:07:21.488Z,3.21
2023-01-13T19:16:12.265Z,3.13
2023-01-13T19:24:20.735Z,3.29
2023-01-13T19:28:11.452Z,3.29
2023-01-13T19:32:23.479Z,3.27
2023-01-13T19:36:25.885Z,3.14
2023-01-13T19:41:07.692Z,3.29
2023-01-13T19:58:26.892Z,3.21
2023-01-13T20:28:41.338Z,3.37
2023-01-13T20:50:12.694Z,3.32
2023-01-13T20:58:43.328Z,3.32
2023-01-13T21:07:17.427Z,3.75
2023-01-13T21:11:34.437Z,3.73
2023-01-13T21:19:38.079Z,3.67
2023-01-13T21:31:38.647Z,3.87
2023-01-13T21:48:27.365Z,3.98
2023-01-13T21:57:12.367Z,4.08
2023-01-13T22:01:34.893Z,4.03
2023-01-13T22:22:23.624Z,3.68
2023-01-13T22:26:28.152Z,3.73
2023-01-13T22:31:05.087Z,3.60
2023-01-13T22:35:08.033Z,3.55
2023-01-13T22:43:46.451Z,3.45
2023-01-13T22:52:24.327Z,3.18
2023-01-13T22:56:37.661Z,3.26
2023-01-13T23:00:44.146Z,3.22
2023-01-13T23:04:31.324Z,3.18
2023-01-13T23:12:50.086Z,3.04
2023-01-13T23:21:13.315Z,2.87
2023-01-13T23:25:13.268Z,2.75
2023-01-13T23:38:16.886Z,2.75
2023-01-13T23:42:25.640Z,2.74
2023-01-13T23:46:34.613Z,2.76
2023-01-13T23:55:07.849Z,2.69
